Time;durP1;ratioP1;P1;durP2;ratioP2;P2;SDS_P1;SDS_P2;PMS_P1;PMS_P2;Temp;Humidity;BMP_temperature;BMP_pressure;BME280_temperature;BME280_humidity;BME280_pressure;Samples;Min_cycle;Max_cycle;Signal;HPM_P1;HPM_P2
2021/03/05 00:01:18;;;;;;;24.17;6.70;;;4.50;84.00;;;;;;5055390;28;20036;-82
2021/03/05 00:03:43;;;;;;;22.92;6.93;;;4.60;84.20;;;;;;5062458;28;20028;-83
2021/03/05 00:06:09;;;;;;;28.48;7.38;;;4.60;83.70;;;;;;5054070;28;20069;-82
2021/03/05 00:08:35;;;;;;;29.85;7.35;;;4.60;83.70;;;;;;5055515;28;20049;-82
2021/03/05 00:11:01;;;;;;;27.23;6.88;;;4.60;83.00;;;;;;5053923;28;20393;-82
2021/03/05 00:13:27;;;;;;;20.95;6.53;;;4.60;82.70;;;;;;5037108;28;20033;-82
2021/03/05 00:15:52;;;;;;;24.95;6.85;;;4.50;83.00;;;;;;5037185;28;20041;-82
2021/03/05 00:18:18;;;;;;;23.23;5.97;;;4.50;83.10;;;;;;5054678;28;20025;-82
2021/03/05 00:20:51;;;;;;;28.70;6.82;;;4.50;82.90;;;;;;5053746;28;20033;-83
2021/03/05 00:23:18;;;;;;;22.70;6.93;;;4.50;83.00;;;;;;5053328;28;20017;-82
2021/03/05 00:25:44;;;;;;;20.58;6.22;;;4.50;83.20;;;;;;5053848;28;20021;-82
2021/03/05 00:28:10;;;;;;;29.73;6.80;;;4.50;83.10;;;;;;5053680;28;20025;-82
2021/03/05 00:30:36;;;;;;;30.35;6.00;;;4.50;82.60;;;;;;5054969;28;20036;-82
2021/03/05 00:33:03;;;;;;;29.95;6.10;;;4.40;82.50;;;;;;5036667;28;20581;-81
2021/03/05 00:35:29;;;;;;;29.83;5.72;;;4.40;82.50;;;;;;5054580;28;20092;-82
2021/03/05 00:37:55;;;;;;;21.83;5.38;;;4.40;82.80;;;;;;5053007;28;20530;-83
2021/03/05 00:40:22;;;;;;;19.30;4.90;;;4.40;82.60;;;;;;5053246;28;20028;-82
2021/03/05 00:42:49;;;;;;;28.95;5.20;;;4.40;82.10;;;;;;5053053;28;20500;-82
2021/03/05 00:45:17;;;;;;;28.15;5.75;;;4.40;82.30;;;;;;5053284;28;20025;-82
2021/03/05 00:47:44;;;;;;;29.25;5.15;;;4.40;82.60;;;;;;5053357;28;20112;-82
2021/03/05 00:50:10;;;;;;;19.95;5.30;;;4.40;82.70;;;;;;5049844;28;20135;-77
2021/03/05 00:52:36;;;;;;;28.38;5.22;;;4.30;82.50;;;;;;5050162;28;20119;-77
2021/03/05 00:55:04;;;;;;;14.73;4.50;;;4.40;82.20;;;;;;5033099;28;20124;-77
2021/03/05 00:57:30;;;;;;;23.33;4.50;;;4.30;82.00;;;;;;5050028;28;20025;-77
2021/03/05 00:59:55;;;;;;;23.73;4.30;;;4.30;81.90;;;;;;5047842;28;20473;-77
2021/03/05 01:02:21;;;;;;;25.45;4.72;;;4.30;81.80;;;;;;5032871;28;20079;-77
2021/03/05 01:04:48;;;;;;;18.20;4.10;;;4.30;82.00;;;;;;5034871;28;20037;-77
2021/03/05 01:07:13;;;;;;;16.88;3.80;;;4.30;82.00;;;;;;5052301;28;20573;-77
2021/03/05 01:09:39;;;;;;;29.02;4.85;;;4.20;82.30;;;;;;5052998;28;20032;-76
2021/03/05 01:12:05;;;;;;;22.38;3.67;;;4.20;82.50;;;;;;5035833;28;20061;-77
2021/03/05 01:14:31;;;;;;;18.83;3.92;;;4.20;82.80;;;;;;5032665;28;20625;-76
2021/03/05 01:16:56;;;;;;;19.02;3.92;;;4.20;83.30;;;;;;5022332;28;20028;-77
2021/03/05 01:19:26;;;;;;;23.83;3.58;;;4.20;83.30;;;;;;5019307;28;20051;-77
2021/03/05 01:21:51;;;;;;;26.77;3.95;;;4.20;83.90;;;;;;5045310;28;20092;-77
2021/03/05 01:24:17;;;;;;;17.13;3.70;;;4.20;83.90;;;;;;5034719;28;20056;-77
2021/03/05 01:26:42;;;;;;;22.60;3.90;;;4.20;84.30;;;;;;5034449;28;20162;-76
2021/03/05 01:29:08;;;;;;;18.42;3.45;;;4.20;84.60;;;;;;5033830;28;20026;-77
2021/03/05 01:31:35;;;;;;;23.30;3.95;;;4.20;84.70;;;;;;5052009;28;20057;-76
2021/03/05 01:34:01;;;;;;;22.20;3.58;;;4.20;84.80;;;;;;5030310;28;20036;-77
2021/03/05 01:36:27;;;;;;;17.15;3.97;;;4.20;84.80;;;;;;5048026;28;20040;-77
2021/03/05 01:38:53;;;;;;;16.77;3.42;;;4.20;85.00;;;;;;5032242;28;20418;-76
2021/03/05 01:41:18;;;;;;;24.23;4.40;;;4.20;85.30;;;;;;5015158;28;20029;-77
2021/03/05 01:43:44;;;;;;;21.70;4.53;;;4.20;85.50;;;;;;5047141;28;20082;-77
2021/03/05 01:46:09;;;;;;;21.10;4.07;;;4.20;85.80;;;;;;5035491;28;20124;-77
2021/03/05 01:48:37;;;;;;;18.52;4.20;;;4.20;85.80;;;;;;5051860;28;20041;-78
2021/03/05 01:51:19;;;;;;;20.05;4.78;;;4.20;85.90;;;;;;5053257;28;20108;-77
2021/03/05 01:53:46;;;;;;;19.25;4.15;;;4.20;86.20;;;;;;5052820;28;20703;-77
2021/03/05 01:56:29;;;;;;;22.60;4.35;;;4.20;86.30;;;;;;5052058;28;20072;-77
2021/03/05 01:58:54;;;;;;;22.60;4.50;;;4.20;87.00;;;;;;5031915;28;20076;-78
2021/03/05 02:01:21;;;;;;;16.60;4.95;;;4.20;86.50;;;;;;5046455;28;20029;-77
2021/03/05 02:03:47;;;;;;;19.92;5.40;;;4.30;86.60;;;;;;5052879;28;20021;-77
2021/03/05 02:06:13;;;;;;;22.33;5.75;;;4.30;86.80;;;;;;5035062;28;20112;-77
2021/03/05 02:08:38;;;;;;;20.90;5.43;;;4.30;87.00;;;;;;5035363;28;20036;-77
2021/03/05 02:11:04;;;;;;;26.15;5.82;;;4.30;87.30;;;;;;5051582;28;20056;-77
2021/03/05 02:13:29;;;;;;;22.45;5.68;;;4.30;87.30;;;;;;5017742;28;20025;-76
2021/03/05 02:15:55;;;;;;;20.08;5.65;;;4.20;87.40;;;;;;5034100;28;20037;-77
2021/03/05 02:18:39;;;;;;;16.95;6.32;;;4.20;87.50;;;;;;5035047;28;20040;-77
2021/03/05 02:21:25;;;;;;;28.00;6.80;;;4.30;87.80;;;;;;5050351;28;20036;-78
2021/03/05 02:23:54;;;;;;;28.33;7.63;;;4.30;87.90;;;;;;5050545;28;20079;-78
2021/03/05 02:26:52;;;;;;;17.73;7.28;;;4.20;87.80;;;;;;5052945;28;20052;-77
2021/03/05 02:29:31;;;;;;;24.15;7.78;;;4.30;88.00;;;;;;5031678;28;20069;-77
2021/03/05 02:32:07;;;;;;;27.08;9.57;;;4.30;88.10;;;;;;5046889;28;20029;-78
2021/03/05 02:34:41;;;;;;;20.42;8.80;;;4.30;88.20;;;;;;5052442;28;20033;-77
2021/03/05 02:37:13;;;;;;;17.70;8.98;;;4.30;88.10;;;;;;5050882;28;20480;-77
2021/03/05 02:40:03;;;;;;;25.73;9.82;;;4.30;88.10;;;;;;5051427;28;20481;-77
2021/03/05 02:42:47;;;;;;;20.23;10.05;;;4.30;88.00;;;;;;5051108;28;20029;-77
2021/03/05 02:45:17;;;;;;;20.08;10.50;;;4.30;87.90;;;;;;5044792;28;20028;-77
2021/03/05 02:47:46;;;;;;;19.30;10.10;;;4.30;87.80;;;;;;5051182;28;20025;-77
2021/03/05 02:50:16;;;;;;;25.63;11.38;;;4.30;87.70;;;;;;5050999;28;20025;-78
2021/03/05 02:52:43;;;;;;;18.05;11.55;;;4.40;87.30;;;;;;5050927;28;20032;-77
2021/03/05 02:55:10;;;;;;;15.68;10.52;;;4.30;86.90;;;;;;5051597;28;20048;-77
2021/03/05 02:57:43;;;;;;;18.42;11.38;;;4.40;86.70;;;;;;5050682;28;20489;-77
2021/03/05 03:00:10;;;;;;;15.85;10.25;;;4.40;86.30;;;;;;5051069;28;20058;-77
2021/03/05 03:02:38;;;;;;;14.93;10.63;;;4.40;86.00;;;;;;5052194;28;20017;-78
2021/03/05 03:05:04;;;;;;;20.20;11.45;;;4.40;86.00;;;;;;5050881;28;20037;-77
2021/03/05 03:07:31;;;;;;;16.58;10.60;;;4.40;85.80;;;;;;5050441;28;20033;-76
2021/03/05 03:09:58;;;;;;;14.82;10.02;;;4.40;86.00;;;;;;5052382;28;20061;-77
2021/03/05 03:12:24;;;;;;;19.42;10.27;;;4.40;85.90;;;;;;5050126;28;20025;-77
2021/03/05 03:14:50;;;;;;;20.55;10.45;;;4.40;85.70;;;;;;5049673;28;20039;-77
2021/03/05 03:17:17;;;;;;;15.70;10.55;;;4.40;84.90;;;;;;5049529;28;20021;-77
2021/03/05 03:19:47;;;;;;;16.80;10.65;;;4.40;84.70;;;;;;5049996;28;20762;-77
2021/03/05 03:22:13;;;;;;;18.00;11.25;;;4.40;84.50;;;;;;5049410;28;20556;-77
2021/03/05 03:24:39;;;;;;;14.15;9.68;;;4.40;84.70;;;;;;5051490;28;20025;-76
2021/03/05 03:27:04;;;;;;;12.02;9.02;;;4.40;83.70;;;;;;5053201;28;20378;-77
2021/03/05 03:29:30;;;;;;;15.98;9.77;;;4.30;83.90;;;;;;5020180;28;20033;-77
2021/03/05 03:31:56;;;;;;;11.63;9.13;;;4.40;83.70;;;;;;5036611;28;20374;-77
2021/03/05 03:34:22;;;;;;;15.73;8.75;;;4.30;82.50;;;;;;5053172;28;20036;-77
2021/03/05 03:36:49;;;;;;;13.90;8.88;;;4.30;82.50;;;;;;5052030;28;20033;-77
2021/03/05 03:39:15;;;;;;;13.90;9.40;;;4.20;82.30;;;;;;5050431;28;20402;-77
2021/03/05 03:41:41;;;;;;;13.75;9.07;;;4.20;82.40;;;;;;5034449;28;20032;-77
2021/03/05 03:44:09;;;;;;;12.48;9.23;;;4.20;82.40;;;;;;5034982;28;20539;-77
2021/03/05 03:46:43;;;;;;;13.25;9.20;;;4.10;82.60;;;;;;5054262;28;20036;-77
2021/03/05 03:49:14;;;;;;;12.65;9.23;;;4.10;82.90;;;;;;5054218;28;20481;-78
2021/03/05 03:51:50;;;;;;;16.05;9.40;;;4.00;83.20;;;;;;5053802;28;20393;-77
2021/03/05 03:54:17;;;;;;;14.35;9.07;;;4.00;83.60;;;;;;5054015;28;20120;-77
2021/03/05 03:56:43;;;;;;;15.10;9.48;;;4.00;83.80;;;;;;5053986;28;20120;-77
2021/03/05 03:59:13;;;;;;;12.65;8.40;;;4.00;84.00;;;;;;5037109;28;20037;-77
2021/03/05 04:01:42;;;;;;;13.15;7.10;;;4.00;82.90;;;;;;5053751;28;20028;-77
2021/03/05 04:04:10;;;;;;;10.90;7.50;;;3.90;82.30;;;;;;5052813;28;20087;-77
2021/03/05 04:06:37;;;;;;;14.73;7.85;;;3.80;82.10;;;;;;5053207;28;20035;-77
2021/03/05 04:09:04;;;;;;;13.68;8.55;;;3.70;81.90;;;;;;5036887;28;20124;-77
2021/03/05 04:11:31;;;;;;;18.15;9.20;;;3.60;82.10;;;;;;5017486;28;20490;-77
2021/03/05 04:13:57;;;;;;;15.25;8.95;;;3.60;82.80;;;;;;5033666;28;20032;-77
2021/03/05 04:16:23;;;;;;;19.80;10.38;;;3.50;83.10;;;;;;5032163;28;20028;-77
2021/03/05 04:18:52;;;;;;;14.95;9.55;;;3.40;83.50;;;;;;5051261;28;20096;-77
2021/03/05 04:21:21;;;;;;;16.40;9.15;;;3.40;84.00;;;;;;5048953;28;20029;-77
2021/03/05 04:23:47;;;;;;;;;;;3.30;84.20;;;;;;5046324;28;20040;-77
2021/03/05 04:26:13;;;;;;;15.30;8.35;;;3.30;84.40;;;;;;5048544;28;20579;-77
2021/03/05 04:28:38;;;;;;;13.38;8.55;;;3.20;84.60;;;;;;5051691;28;20634;-77
2021/03/05 04:31:04;;;;;;;14.18;8.65;;;3.10;84.60;;;;;;5035650;28;20079;-77
2021/03/05 04:33:30;;;;;;;14.85;8.07;;;3.10;84.50;;;;;;5052501;28;20085;-78
2021/03/05 04:35:56;;;;;;;14.15;7.90;;;3.00;84.40;;;;;;5035748;28;20029;-77
2021/03/05 04:38:21;;;;;;;15.27;7.38;;;3.00;84.20;;;;;;5052674;28;20049;-77
2021/03/05 04:40:47;;;;;;;17.05;8.07;;;3.00;84.30;;;;;;5052923;28;20040;-77
2021/03/05 04:43:13;;;;;;;13.82;8.80;;;2.90;84.50;;;;;;5035490;28;20025;-77
2021/03/05 04:45:39;;;;;;;13.30;8.13;;;2.90;84.50;;;;;;5036263;28;20068;-77
2021/03/05 04:48:05;;;;;;;13.07;8.30;;;2.80;84.70;;;;;;5051846;28;20548;-77
2021/03/05 04:50:31;;;;;;;14.70;9.43;;;2.80;84.90;;;;;;5051451;28;20044;-77
2021/03/05 04:52:57;;;;;;;15.43;9.20;;;2.70;85.00;;;;;;5050998;28;20539;-77
2021/03/05 04:55:22;;;;;;;16.48;10.02;;;2.60;85.20;;;;;;5034840;28;20131;-77
2021/03/05 04:57:48;;;;;;;13.25;8.98;;;2.60;85.20;;;;;;5016021;28;20485;-77
2021/03/05 05:00:14;;;;;;;13.18;8.27;;;2.50;85.20;;;;;;5049897;28;20021;-77
2021/03/05 05:02:39;;;;;;;10.93;7.65;;;2.50;85.40;;;;;;5031600;28;20033;-77
2021/03/05 05:05:05;;;;;;;13.73;8.05;;;2.50;85.50;;;;;;5049478;28;20056;-78
2021/03/05 05:07:31;;;;;;;14.05;8.35;;;2.50;85.50;;;;;;5034504;28;20135;-77
2021/03/05 05:09:57;;;;;;;13.27;8.63;;;2.50;86.10;;;;;;5050618;28;20136;-77
2021/03/05 05:12:22;;;;;;;11.07;7.72;;;2.50;85.40;;;;;;5031382;28;20601;-77
2021/03/05 05:14:48;;;;;;;13.05;8.02;;;2.40;85.40;;;;;;5032841;28;20393;-78
2021/03/05 05:17:14;;;;;;;15.60;8.07;;;2.40;85.40;;;;;;5052146;28;20112;-77
2021/03/05 05:19:39;;;;;;;15.10;7.88;;;2.40;85.20;;;;;;5036139;28;20053;-77
2021/03/05 05:22:05;;;;;;;13.93;7.90;;;2.30;85.30;;;;;;5035816;28;20020;-77
2021/03/05 05:24:31;;;;;;;15.07;8.57;;;2.30;85.40;;;;;;5035795;28;20025;-77
2021/03/05 05:26:56;;;;;;;12.27;8.63;;;2.30;85.40;;;;;;5035873;28;20027;-77
2021/03/05 05:29:22;;;;;;;12.65;8.63;;;2.30;85.30;;;;;;5052949;28;20021;-77
2021/03/05 05:31:47;;;;;;;16.13;9.32;;;2.20;85.30;;;;;;5053828;28;20037;-77
2021/03/05 05:34:13;;;;;;;16.17;9.00;;;2.20;85.20;;;;;;5036070;28;20032;-77
2021/03/05 05:36:39;;;;;;;13.27;8.98;;;2.10;85.10;;;;;;5035849;28;20100;-77
2021/03/05 05:39:05;;;;;;;12.60;7.80;;;2.10;84.90;;;;;;5052136;28;20044;-77
2021/03/05 05:41:31;;;;;;;12.20;7.20;;;2.00;84.70;;;;;;5052529;28;20029;-77
2021/03/05 05:43:57;;;;;;;11.52;7.05;;;2.00;84.80;;;;;;5036606;28;20026;-84
2021/03/05 05:46:23;;;;;;;9.43;6.28;;;2.00;84.60;;;;;;5035726;28;20087;-85
2021/03/05 05:48:49;;;;;;;12.02;6.55;;;2.00;84.70;;;;;;5054025;28;20435;-84
2021/03/05 05:51:18;;;;;;;11.32;6.43;;;1.90;84.40;;;;;;5052823;28;20029;-86
2021/03/05 05:53:46;;;;;;;12.03;6.10;;;1.90;84.50;;;;;;5054046;28;20035;-84
2021/03/05 05:56:22;;;;;;;10.88;6.00;;;1.90;84.60;;;;;;5053166;28;20087;-85
2021/03/05 05:58:47;;;;;;;11.05;5.95;;;1.90;84.40;;;;;;5033326;28;20022;-85
2021/03/05 06:01:13;;;;;;;10.05;6.15;;;1.80;84.20;;;;;;5043486;28;20052;-85
2021/03/05 06:03:40;;;;;;;7.85;4.90;;;1.90;84.00;;;;;;5053831;28;20021;-85
2021/03/05 06:06:06;;;;;;;11.50;5.50;;;1.80;84.00;;;;;;5053569;28;20040;-85
2021/03/05 06:08:32;;;;;;;14.85;5.47;;;1.80;83.60;;;;;;5053774;28;20029;-85
2021/03/05 06:10:58;;;;;;;11.55;5.32;;;1.70;83.30;;;;;;5053413;28;20037;-84
2021/03/05 06:13:25;;;;;;;8.48;4.90;;;1.70;83.50;;;;;;5036255;28;20481;-85
2021/03/05 06:16:10;;;;;;;7.75;5.32;;;1.70;83.70;;;;;;5052155;28;20123;-85
2021/03/05 06:18:35;;;;;;;8.80;5.53;;;1.70;83.60;;;;;;5052113;28;20067;-84
2021/03/05 06:21:01;;;;;;;9.88;6.47;;;1.70;83.70;;;;;;5035884;28;20037;-85
2021/03/05 06:23:27;;;;;;;8.85;5.78;;;1.70;83.80;;;;;;5052565;28;20025;-85
2021/03/05 06:26:00;;;;;;;10.23;7.38;;;1.70;83.80;;;;;;5019450;28;20393;-85
2021/03/05 06:28:27;;;;;;;13.10;7.07;;;1.70;83.80;;;;;;5035733;28;20087;-85
2021/03/05 06:30:53;;;;;;;13.52;6.93;;;1.60;83.50;;;;;;5081351;28;20039;-85
2021/03/05 06:33:31;;;;;;;9.80;5.97;;;1.60;83.80;;;;;;5054588;28;20033;-86
2021/03/05 06:36:18;;;;;;;12.30;6.50;;;1.60;83.90;;;;;;5052210;28;20366;-85
2021/03/05 06:38:46;;;;;;;10.45;5.72;;;1.60;83.90;;;;;;5052315;28;20048;-85
2021/03/05 06:41:22;;;;;;;13.40;6.75;;;1.60;83.90;;;;;;5052511;28;20155;-86
2021/03/05 06:43:54;;;;;;;12.93;6.03;;;1.60;83.40;;;;;;5037020;28;20025;-85
2021/03/05 06:46:38;;;;;;;9.40;5.22;;;1.60;83.30;;;;;;5065373;28;20033;-84
2021/03/05 06:49:13;;;;;;;13.68;5.75;;;1.60;83.60;;;;;;5048723;28;20392;-84
2021/03/05 06:51:39;;;;;;;13.10;5.50;;;1.60;82.60;;;;;;5051655;28;20474;-84
2021/03/05 06:54:08;;;;;;;11.93;6.10;;;1.60;82.00;;;;;;5051915;28;20029;-84
2021/03/05 06:56:36;;;;;;;13.98;6.15;;;1.60;81.90;;;;;;5052034;28;20501;-84
2021/03/05 06:59:02;;;;;;;9.38;5.10;;;1.60;81.70;;;;;;5054979;28;20111;-83
2021/03/05 07:01:27;;;;;;;10.10;4.85;;;1.70;81.90;;;;;;5060647;28;20442;-83
2021/03/05 07:04:14;;;;;;;8.23;4.90;;;1.70;82.00;;;;;;5075652;28;20610;-83
2021/03/05 07:06:39;;;;;;;10.82;4.80;;;1.70;82.00;;;;;;5035649;28;20088;-83
2021/03/05 07:09:10;;;;;;;6.38;4.10;;;1.70;81.70;;;;;;5042725;28;20481;-84
2021/03/05 07:11:39;;;;;;;8.75;3.50;;;1.80;81.40;;;;;;5039083;28;20037;-84
2021/03/05 07:14:07;;;;;;;8.70;4.55;;;1.80;81.30;;;;;;5055484;28;20481;-83
2021/03/05 07:16:47;;;;;;;6.88;4.18;;;1.80;80.30;;;;;;5056433;28;20029;-83
2021/03/05 07:19:18;;;;;;;42.67;13.43;;;1.80;80.40;;;;;;5054558;28;20017;-83
2021/03/05 07:21:47;;;;;;;53.72;18.45;;;1.80;79.80;;;;;;5056805;28;20112;-83
2021/03/05 07:24:15;;;;;;;127.47;34.63;;;1.80;79.60;;;;;;5054877;28;20029;-81
2021/03/05 07:27:01;;;;;;;46.97;14.35;;;1.80;79.60;;;;;;5054746;28;20029;-81
2021/03/05 07:29:28;;;;;;;24.63;9.30;;;1.80;79.00;;;;;;5040745;28;20111;-81
2021/03/05 07:32:21;;;;;;;36.53;13.00;;;1.90;79.20;;;;;;5054755;28;20120;-80
2021/03/05 07:34:59;;;;;;;28.13;11.13;;;1.90;78.50;;;;;;5052827;28;20037;-81
2021/03/05 07:37:53;;;;;;;16.98;6.78;;;1.90;78.80;;;;;;5053932;28;20025;-80
2021/03/05 07:40:20;;;;;;;11.85;7.40;;;2.00;78.20;;;;;;5054813;28;20029;-79
2021/03/05 07:42:46;;;;;;;8.18;4.10;;;2.00;78.40;;;;;;5054127;28;20040;-81
2021/03/05 07:45:13;;;;;;;9.68;4.05;;;2.10;78.10;;;;;;5053923;28;20474;-80
2021/03/05 07:47:45;;;;;;;7.18;3.17;;;2.10;77.80;;;;;;5054152;28;20025;-80
2021/03/05 07:50:14;;;;;;;8.65;3.95;;;2.20;77.20;;;;;;5055051;28;20053;-81
2021/03/05 07:52:40;;;;;;;6.37;3.20;;;2.20;77.10;;;;;;5054950;28;20109;-80
2021/03/05 07:55:07;;;;;;;5.25;3.05;;;2.30;77.40;;;;;;5020759;28;20033;-80
2021/03/05 07:57:32;;;;;;;10.02;3.40;;;2.40;76.60;;;;;;5053647;28;20025;-81
2021/03/05 08:00:02;;;;;;;7.05;3.38;;;2.50;76.10;;;;;;5054008;28;20113;-81
2021/03/05 08:02:58;;;;;;;6.78;2.70;;;2.50;76.20;;;;;;5037984;28;20491;-81
2021/03/05 08:05:33;;;;;;;5.95;2.78;;;2.60;75.50;;;;;;5047914;28;20052;-80
2021/03/05 08:08:11;;;;;;;7.40;3.10;;;2.60;75.60;;;;;;5053479;28;20036;-81
2021/03/05 08:10:39;;;;;;;8.38;3.13;;;2.60;75.10;;;;;;5051327;28;20029;-81
2021/03/05 08:16:29;;;;;;;5.78;2.92;;;2.70;75.10;;;;;;5046219;28;20032;-81
2021/03/05 08:19:16;;;;;;;6.40;2.78;;;2.80;75.10;;;;;;5068616;28;20017;-81
2021/03/05 08:21:55;;;;;;;4.30;2.30;;;2.90;74.90;;;;;;5044187;28;20033;-81
2021/03/05 08:24:24;;;;;;;6.30;2.70;;;3.00;75.10;;;;;;5051400;28;20017;-81
2021/03/05 08:27:00;;;;;;;5.28;2.10;;;3.20;74.90;;;;;;5050775;28;20025;-81
2021/03/05 08:30:18;;;;;;;5.35;2.05;;;3.30;73.90;;;;;;5033828;28;20032;-81
2021/03/05 08:32:50;;;;;;;7.00;2.25;;;3.40;73.30;;;;;;5018024;28;20135;-81
2021/03/05 08:35:18;;;;;;;4.28;2.08;;;3.40;73.10;;;;;;5050606;28;20032;-81
2021/03/05 08:37:46;;;;;;;6.23;2.30;;;3.40;72.30;;;;;;5050799;28;20117;-81
2021/03/05 08:40:18;;;;;;;4.93;2.03;;;3.50;71.50;;;;;;5037026;28;20049;-76
2021/03/05 08:42:48;;;;;;;6.10;2.40;;;3.60;71.80;;;;;;5054737;28;20052;-76
2021/03/05 08:45:19;;;;;;;5.32;1.98;;;3.60;70.10;;;;;;5053878;28;20044;-77
2021/03/05 08:47:49;;;;;;;4.90;1.60;;;3.60;70.00;;;;;;5053804;28;20560;-76
2021/03/05 08:50:18;;;;;;;6.13;1.98;;;3.80;70.60;;;;;;5053027;28;20025;-77
2021/03/05 08:52:45;;;;;;;3.63;1.70;;;3.80;69.20;;;;;;5052773;28;20132;-77
2021/03/05 08:55:13;;;;;;;4.72;1.50;;;3.90;69.10;;;;;;5052296;28;20597;-79
2021/03/05 08:57:46;;;;;;;3.75;1.35;;;3.90;68.50;;;;;;5053913;28;20021;-76
2021/03/05 09:00:15;;;;;;;3.22;1.58;;;3.90;68.90;;;;;;5053871;28;20349;-77
2021/03/05 09:02:41;;;;;;;4.80;1.55;;;4.00;68.70;;;;;;5054357;28;20028;-77
2021/03/05 09:05:07;;;;;;;3.78;1.75;;;4.10;67.90;;;;;;5051581;28;20445;-76
2021/03/05 09:07:45;;;;;;;8.13;1.60;;;4.10;67.80;;;;;;5051599;28;20032;-78
2021/03/05 09:10:12;;;;;;;4.78;1.60;;;4.20;67.90;;;;;;5051939;28;20028;-78
2021/03/05 09:12:51;;;;;;;5.25;1.90;;;4.30;68.30;;;;;;5034042;28;20057;-78
2021/03/05 09:15:17;;;;;;;4.15;1.55;;;4.50;68.20;;;;;;5052429;28;20036;-78
2021/03/05 09:17:44;;;;;;;5.93;1.70;;;4.70;67.90;;;;;;5036476;28;20037;-77
2021/03/05 09:20:10;;;;;;;4.68;1.70;;;4.90;66.60;;;;;;5053940;28;20553;-78
2021/03/05 09:22:36;;;;;;;6.82;1.60;;;5.00;67.50;;;;;;5051754;28;20056;-78
2021/03/05 09:25:09;;;;;;;8.00;1.85;;;5.10;65.60;;;;;;5053064;28;20061;-78
2021/03/05 09:27:42;;;;;;;5.60;1.67;;;5.20;65.40;;;;;;5052893;28;20094;-78
2021/03/05 09:30:24;;;;;;;4.72;1.70;;;5.20;65.40;;;;;;5053023;28;20486;-78
2021/03/05 09:32:55;;;;;;;9.75;1.80;;;5.30;65.60;;;;;;5036754;28;20078;-78
2021/03/05 09:35:25;;;;;;;4.30;1.60;;;5.40;65.10;;;;;;5054098;28;20439;-77
2021/03/05 09:37:51;;;;;;;4.13;1.50;;;5.40;63.80;;;;;;5036323;28;20037;-77
2021/03/05 09:40:17;;;;;;;4.10;1.95;;;5.50;64.40;;;;;;5053247;28;20036;-78
2021/03/05 09:42:43;;;;;;;5.20;1.25;;;5.50;64.10;;;;;;5050313;28;20385;-78
2021/03/05 09:45:09;;;;;;;6.20;2.05;;;5.60;64.30;;;;;;5053149;28;20031;-78
2021/03/05 09:47:48;;;;;;;7.68;2.15;;;5.70;63.60;;;;;;5035973;28;20029;-77
2021/03/05 09:50:21;;;;;;;5.38;1.98;;;5.80;63.60;;;;;;5036496;28;20033;-83
2021/03/05 09:52:47;;;;;;;3.20;1.52;;;5.80;63.10;;;;;;5052796;28;20040;-84
2021/03/05 09:55:22;;;;;;;3.83;1.42;;;5.90;63.10;;;;;;5053912;28;20035;-83
2021/03/05 09:57:48;;;;;;;6.60;2.00;;;5.90;62.70;;;;;;5052537;28;20013;-84
2021/03/05 10:00:34;;;;;;;3.97;1.80;;;6.00;62.90;;;;;;5052845;28;20025;-84
2021/03/05 10:03:02;;;;;;;4.00;1.70;;;6.10;63.40;;;;;;5052113;28;20725;-84
2021/03/05 10:05:28;;;;;;;4.22;1.65;;;6.20;62.80;;;;;;5052506;28;20029;-84
2021/03/05 10:07:53;;;;;;;5.15;2.10;;;6.30;62.20;;;;;;5052380;28;20036;-83
2021/03/05 10:10:20;;;;;;;4.05;2.05;;;6.30;61.70;;;;;;5052354;28;20116;-84
2021/03/05 10:12:54;;;;;;;4.85;2.03;;;6.40;61.40;;;;;;5052304;28;20047;-84
2021/03/05 10:15:20;;;;;;;2.65;1.65;;;6.40;61.50;;;;;;5052177;28;20485;-82
2021/03/05 10:17:46;;;;;;;3.67;1.70;;;6.50;61.00;;;;;;5035882;28;20036;-84
2021/03/05 10:20:12;;;;;;;4.20;1.52;;;6.60;60.80;;;;;;5052352;28;20100;-83
2021/03/05 10:22:38;;;;;;;4.45;1.55;;;6.70;59.80;;;;;;5052326;28;20079;-84
2021/03/05 10:25:05;;;;;;;4.13;1.67;;;6.70;60.20;;;;;;5035704;28;20033;-84
2021/03/05 10:27:41;;;;;;;4.15;1.92;;;6.70;59.30;;;;;;5054196;28;20021;-84
2021/03/05 10:30:07;;;;;;;3.92;1.73;;;6.70;59.70;;;;;;5089154;28;20098;-83
2021/03/05 10:32:40;;;;;;;5.15;1.90;;;6.80;59.70;;;;;;5072053;28;20031;-84
2021/03/05 10:35:12;;;;;;;5.95;1.63;;;6.90;59.60;;;;;;5060045;28;20116;-84
2021/03/05 10:37:39;;;;;;;6.32;2.00;;;7.00;58.40;;;;;;5027887;28;20037;-84
2021/03/05 10:40:07;;;;;;;8.95;1.75;;;7.00;57.60;;;;;;5052496;28;20048;-84
2021/03/05 10:42:33;;;;;;;3.00;1.65;;;7.10;57.30;;;;;;5031542;28;20037;-84
2021/03/05 10:44:59;;;;;;;2.95;1.50;;;7.10;57.20;;;;;;5031979;28;20387;-77
2021/03/05 10:47:25;;;;;;;4.15;1.63;;;7.10;56.40;;;;;;5051658;28;20036;-77
2021/03/05 10:49:51;;;;;;;2.30;1.30;;;7.20;55.50;;;;;;5050917;28;20025;-78
2021/03/05 10:52:22;;;;;;;4.65;1.20;;;7.20;54.60;;;;;;5035540;28;20033;-77
2021/03/05 10:54:47;;;;;;;3.08;1.30;;;7.30;54.30;;;;;;5053004;28;20497;-77
2021/03/05 10:57:15;;;;;;;2.60;1.30;;;7.30;54.60;;;;;;5035321;28;20030;-77
2021/03/05 10:59:41;;;;;;;3.65;1.02;;;7.20;54.20;;;;;;5035179;28;20389;-77
2021/03/05 11:02:07;;;;;;;4.18;1.35;;;7.30;53.80;;;;;;5035254;28;20397;-78
2021/03/05 11:04:33;;;;;;;4.93;1.67;;;7.30;53.80;;;;;;5034987;28;20474;-77
2021/03/05 11:06:59;;;;;;;3.78;1.70;;;7.50;53.50;;;;;;5051710;28;20029;-77
2021/03/05 11:09:26;;;;;;;3.42;1.30;;;7.50;53.80;;;;;;5035020;28;20026;-76
2021/03/05 11:11:52;;;;;;;2.65;0.95;;;7.60;52.10;;;;;;5051430;28;20021;-76
2021/03/05 11:14:18;;;;;;;3.38;1.75;;;7.50;52.40;;;;;;5052803;28;20028;-76
2021/03/05 11:16:44;;;;;;;5.45;1.63;;;7.60;51.10;;;;;;5052743;28;20032;-76
2021/03/05 11:19:10;;;;;;;4.05;1.25;;;7.60;52.50;;;;;;5051238;28;20021;-77
2021/03/05 11:21:36;;;;;;;2.42;1.13;;;7.70;51.30;;;;;;5034242;28;20033;-78
2021/03/05 11:24:02;;;;;;;3.90;1.42;;;7.80;51.90;;;;;;5052214;28;20431;-78
2021/03/05 11:26:28;;;;;;;4.65;1.48;;;7.90;51.00;;;;;;5052236;28;20028;-78
2021/03/05 11:28:54;;;;;;;2.60;1.55;;;8.00;50.80;;;;;;5050490;28;20473;-78
2021/03/05 11:31:21;;;;;;;2.10;1.30;;;8.10;50.90;;;;;;5034295;28;20044;-77
2021/03/05 11:33:47;;;;;;;2.08;1.17;;;8.20;51.40;;;;;;5050841;28;20505;-78
2021/03/05 11:36:14;;;;;;;2.35;1.30;;;8.30;51.80;;;;;;5050817;28;20036;-80
2021/03/05 11:38:41;;;;;;;8.10;1.60;;;8.40;51.10;;;;;;5050634;28;20509;-80
2021/03/05 11:41:08;;;;;;;4.30;1.42;;;8.40;49.50;;;;;;5034192;28;20029;-80
2021/03/05 11:43:37;;;;;;;4.95;1.23;;;8.30;49.60;;;;;;5051282;28;20036;-80
2021/03/05 11:46:03;;;;;;;4.22;1.45;;;8.30;48.60;;;;;;5053634;28;20481;-78
2021/03/05 11:48:28;;;;;;;3.40;1.23;;;8.30;49.20;;;;;;5054916;28;20032;-78
2021/03/05 11:50:54;;;;;;;2.00;1.05;;;8.30;49.40;;;;;;5054884;28;20029;-78
2021/03/05 11:53:20;;;;;;;4.85;1.40;;;8.50;50.10;;;;;;5038261;28;20409;-78
2021/03/05 11:55:45;;;;;;;2.00;1.20;;;8.70;50.00;;;;;;5054879;28;20110;-79
2021/03/05 11:58:11;;;;;;;3.03;1.10;;;8.70;47.40;;;;;;5055850;28;20024;-79
2021/03/05 12:00:36;;;;;;;5.30;1.20;;;8.60;46.70;;;;;;5054789;28;20017;-78
2021/03/05 12:03:02;;;;;;;2.53;1.35;;;8.50;47.80;;;;;;5054679;28;20377;-78
2021/03/05 12:05:28;;;;;;;2.42;1.30;;;8.60;48.40;;;;;;5037952;28;20041;-78
2021/03/05 12:07:53;;;;;;;1.30;0.82;;;8.70;47.60;;;;;;5054712;28;20025;-78
2021/03/05 12:10:19;;;;;;;2.25;0.98;;;8.80;46.40;;;;;;5021116;28;20032;-78
2021/03/05 12:12:45;;;;;;;2.67;1.08;;;8.90;46.10;;;;;;5054554;28;20033;-78
2021/03/05 12:15:11;;;;;;;3.38;1.27;;;9.00;47.00;;;;;;5054187;28;20033;-78
2021/03/05 12:17:36;;;;;;;2.42;1.10;;;9.10;46.20;;;;;;5055371;28;20025;-78
2021/03/05 12:20:04;;;;;;;4.90;1.40;;;9.10;45.50;;;;;;5055465;28;20044;-78
2021/03/05 12:22:29;;;;;;;2.55;1.00;;;9.10;45.80;;;;;;5055712;28;20033;-79
2021/03/05 12:24:55;;;;;;;3.13;1.05;;;9.10;45.40;;;;;;5037557;28;20556;-79
2021/03/05 12:27:22;;;;;;;1.98;1.00;;;9.10;45.70;;;;;;5037579;28;20367;-79
2021/03/05 12:29:47;;;;;;;2.65;1.30;;;9.20;46.80;;;;;;5053895;28;20035;-79
2021/03/05 12:32:13;;;;;;;2.60;1.20;;;9.40;46.70;;;;;;5050311;28;20554;-80
2021/03/05 12:34:39;;;;;;;1.60;0.93;;;9.50;45.30;;;;;;5036699;28;20043;-77
2021/03/05 12:37:04;;;;;;;2.67;0.90;;;9.50;46.00;;;;;;5052834;28;20032;-78
2021/03/05 12:39:30;;;;;;;2.35;0.85;;;9.60;45.50;;;;;;5036754;28;20045;-78
2021/03/05 12:41:56;;;;;;;2.03;0.90;;;9.70;45.30;;;;;;5052988;28;20481;-79
2021/03/05 12:44:21;;;;;;;2.25;0.88;;;9.70;44.60;;;;;;5036546;28;20032;-80
2021/03/05 12:46:47;;;;;;;1.40;1.00;;;9.70;43.80;;;;;;5036756;28;20033;-80
2021/03/05 12:49:13;;;;;;;5.63;1.30;;;9.60;43.60;;;;;;5036707;28;20033;-80
2021/03/05 12:51:38;;;;;;;5.45;1.05;;;9.50;44.30;;;;;;5053311;28;20044;-80
2021/03/05 12:54:04;;;;;;;2.78;0.90;;;9.50;44.60;;;;;;5037129;28;20029;-79
2021/03/05 12:56:31;;;;;;;3.08;0.98;;;9.40;43.60;;;;;;5036338;28;20404;-80
2021/03/05 12:58:57;;;;;;;3.63;1.08;;;9.40;43.80;;;;;;5053291;28;20069;-80
2021/03/05 13:01:23;;;;;;;4.05;1.17;;;9.30;43.90;;;;;;5053261;28;20027;-80